Terminal Aerodrome Forecast
Issued by NWS Shreveport, LA

Home | Current Version | Previous Version | Text Only | Print | Product List | Glossary On
Versions: 1 2 3 4 5 6 7 8 9 10 11 12 13 14 15 16 17 18 19 20 21 22 23
666
FTUS44 KSHV 281720
TAFLFK
TAF
KLFK 281720Z 2818/2918 24005KT P6SM SCT025
      TEMPO 2818/2819 BKN020
     FM290000 VRB03KT P6SM SKC
      TEMPO 2904/2908 3SM BR
     FM290800 VRB03KT 2SM BR BKN010
      TEMPO 2908/2911 1/2SM FG VV002
     FM291300 14004KT P6SM SCT020
      TEMPO 2913/2915 4SM BR BKN015=

USA.gov is the U.S. government's official web portal to all federal, state and local government web resources and services.